KAQW/AQW METAR and TAF weather

Enter ICAO airport designator
Station Type Date Time Source
KAQW METAR 2021/05/17 21:52 UTC NOAA

KAQW 172152Z AUTO 13006KT 10SM CLR 25/02 A3021 RMK AO2 SLP231 T02500017


Station Type Date Time Source
KAQW Decoded METAR 2021/05/17 21:52 UTC NOAA

N ADAMS HARRIMAN-AND-WEST, MA, United States (KAQW) 42-42N 073-10W 201M
May 17, 2021 - 05:52 PM EDT / 2021.05.17 2152 UTC
Wind: from the SE (130 degrees) at 7 MPH (6 KT):0
Visibility: 10 mile(s):0
Sky conditions: clear
Temperature: 77.0 F (25.0 C)
Dew Point: 35.1 F (1.7 C)
Relative Humidity: 21%
Pressure (altimeter): 30.21 in. Hg (1023 hPa)
ob: KAQW 172152Z AUTO 13006KT 10SM CLR 25/02 A3021 RMK AO2 SLP231 T02500017
cycle: 22

Station Type Date Time Source
KAQW TAF UTC NOAA

Error!

Example: see airport list